NEOK1: Neosho R at Neosho Rapids, KS

                                SHEF ID:       NEOK1     NEOSHO R AT NEOSHO RAPIDS, KS
STATION TYPE:

STAGE RIV-FLOW BAT-LOAD
ft cfs volt
Ccp-Rev Ccp-Rev Ccp-Rev
(America/Chicago)
03/06 00:00 8.80 4844 12.45
03/06 01:00 8.77 4821 12.44
03/06 02:00 8.81 4852 12.43
03/06 03:00 8.81 4852 12.41
03/06 04:00 8.85 4883 12.40
03/06 05:00 8.88 4906 12.38
03/06 06:00 8.93 4944 12.37
03/06 07:00 8.97 4975 12.35
03/06 08:00 9.04 5029 12.33
03/06 09:00 9.13 5099 12.34
03/06 10:00 9.24 5184 13.11
03/06 11:00 9.35 5270 13.01
03/06 12:00 9.46 5356 12.73
03/06 13:00 9.55 5427 12.62
03/06 14:00 9.61 5474 13.05
03/06 15:00 9.66 5514 12.68
03/06 16:00 9.68 5530 12.59
03/06 17:00 9.69 5538 12.55
03/06 18:00 9.69 5538 12.54
03/06 19:00 9.67 5522 12.49
03/06 20:00 9.63 5490 12.48
03/06 21:00 9.60 5466 12.47
03/06 22:00 9.56 5435 12.46
03/06 23:00 9.53 5411 12.44
Data processed at Sat 07Mar2026 05:36 GMT

NOTICE: If you are parsing this page

Please convert to using our Data API. Starting early 2026 we will be migrating to: https://water.usace.army.mil with modern pages rendered in JavaScript. When this migration completes you will no longer be able to scrape this page! CWMSDataAPI (CDA)

Timeseries IDs (TSIDs)

TSIDs used from left to right in the data table
NEOR.Stage.Inst.1Hour.0.Ccp-Rev
NEOR.Flow.Inst.1Hour.0.Ccp-Rev
NEOR.Volt-Battery Load.Inst.1Hour.0.Ccp-Rev

                            

All information presented herein is the property of the government of the United States of America and may be revised or deleted at any time without prior notice. Dissemination of this information without the expressed written consent of the Public Affairs Office, Tulsa District U.S. Army Corps of Engineers is strictly prohibited. These data are gathered electronically and, as presented, have NOT undergone any form of quality control. These data are NOT guaranteed to be valid or correct.